WGN618 KMSP-KSAT
Flight info
| Callsign | WGN618 |
|---|---|
| Flight time | N/A |
| Altitude | 32000 |
| Route | ORSKY3 ONTIJ EMP CVE BLEWE QERVO3 |
| Aircraft | MD1F/H-SDE1E2E3FGHIJ2J3J4J5M1RWXY/LB1D1 |
Departure
| Time | 2026-05-05 18:49 |
|---|---|
| Airport | Minneapolis–Saint Paul International Airport / Wold–Chamberlain Field (KMSP) |
Arrival
| Time | N/A |
|---|---|
| Airport | San Antonio International Airport (KSAT) |
| Time | Latitude | Longitude | Altitude | Speed | Heading |
|---|---|---|---|---|---|
| 2026-05-05 18:34 | 44.88187 | -93.23205 | 837 ft | 0 kts | 30° |
| 2026-05-05 18:37 | 44.88168 | -93.23220 | 837 ft | 3 kts | 30° |
| 2026-05-05 18:37 | 44.88156 | -93.23229 | 837 ft | 1 kts | 33° |
| 2026-05-05 18:37 | 44.88148 | -93.23237 | 837 ft | 1 kts | 44° |
| 2026-05-05 18:37 | 44.88142 | -93.23247 | 837 ft | 1 kts | 63° |
| 2026-05-05 18:38 | 44.88139 | -93.23257 | 837 ft | 1 kts | 79° |
| 2026-05-05 18:38 | 44.88139 | -93.23267 | 837 ft | 0 kts | 96° |
| 2026-05-05 18:38 | 44.88140 | -93.23277 | 837 ft | 1 kts | 112° |
| 2026-05-05 18:38 | 44.88143 | -93.23286 | 837 ft | 0 kts | 119° |
| 2026-05-05 18:39 | 44.88143 | -93.23287 | 837 ft | 0 kts | 120° |
| 2026-05-05 18:41 | 44.88137 | -93.23273 | 837 ft | 4 kts | 120° |
| 2026-05-05 18:41 | 44.88104 | -93.23202 | 835 ft | 11 kts | 125° |
| 2026-05-05 18:41 | 44.88042 | -93.23069 | 833 ft | 17 kts | 122° |
| 2026-05-05 18:42 | 44.88054 | -93.22892 | 833 ft | 19 kts | 49° |
| 2026-05-05 18:42 | 44.88152 | -93.22750 | 836 ft | 18 kts | 45° |
| 2026-05-05 18:42 | 44.88245 | -93.22626 | 836 ft | 12 kts | 41° |
| 2026-05-05 18:42 | 44.88260 | -93.22533 | 836 ft | 9 kts | 107° |
| 2026-05-05 18:43 | 44.88226 | -93.22433 | 836 ft | 12 kts | 118° |
| 2026-05-05 18:43 | 44.88177 | -93.22318 | 835 ft | 14 kts | 123° |
| 2026-05-05 18:43 | 44.88113 | -93.22170 | 832 ft | 18 kts | 120° |
| 2026-05-05 18:43 | 44.88036 | -93.21991 | 832 ft | 21 kts | 122° |
| 2026-05-05 18:44 | 44.87944 | -93.21781 | 829 ft | 25 kts | 122° |
| 2026-05-05 18:44 | 44.87840 | -93.21545 | 829 ft | 27 kts | 122° |
| 2026-05-05 18:44 | 44.87725 | -93.21279 | 826 ft | 31 kts | 121° |
| 2026-05-05 18:44 | 44.87596 | -93.20976 | 822 ft | 34 kts | 118° |
| 2026-05-05 18:45 | 44.87461 | -93.20705 | 816 ft | 29 kts | 142° |
| 2026-05-05 18:45 | 44.87298 | -93.20442 | 809 ft | 33 kts | 122° |
| 2026-05-05 18:45 | 44.87241 | -93.20271 | 807 ft | 11 kts | 80° |
| 2026-05-05 18:45 | 44.87275 | -93.20210 | 808 ft | 0 kts | 37° |
| 2026-05-05 18:46 | 44.87295 | -93.20190 | 808 ft | 6 kts | 33° |
| 2026-05-05 18:46 | 44.87368 | -93.20168 | 810 ft | 13 kts | 327° |
| 2026-05-05 18:47 | 44.87389 | -93.20196 | 810 ft | 0 kts | 315° |
| 2026-05-05 18:48 | 44.87412 | -93.20234 | 811 ft | 11 kts | 306° |
| 2026-05-05 18:48 | 44.87569 | -93.20609 | 815 ft | 80 kts | 300° |
| 2026-05-05 18:48 | 44.88013 | -93.21644 | 829 ft | 149 kts | 301° |
| 2026-05-05 18:48 | 44.88702 | -93.23187 | 1171 ft | 175 kts | 302° |
| 2026-05-05 18:49 | 44.89420 | -93.24747 | 2003 ft | 173 kts | 301° |
| 2026-05-05 18:49 | 44.90122 | -93.26292 | 2767 ft | 171 kts | 300° |
| 2026-05-05 18:49 | 44.90379 | -93.28031 | 3225 ft | 172 kts | 260° |
| 2026-05-05 18:49 | 44.89740 | -93.29692 | 3625 ft | 183 kts | 230° |
| 2026-05-05 18:50 | 44.88554 | -93.30895 | 4024 ft | 194 kts | 213° |
| 2026-05-05 18:50 | 44.87126 | -93.31825 | 4176 ft | 219 kts | 207° |
| 2026-05-05 18:50 | 44.85424 | -93.32774 | 4289 ft | 250 kts | 205° |
| 2026-05-05 18:50 | 44.83521 | -93.33811 | 4782 ft | 267 kts | 205° |
| 2026-05-05 18:51 | 44.81569 | -93.34919 | 5535 ft | 278 kts | 206° |
| 2026-05-05 18:51 | 44.79515 | -93.36128 | 6501 ft | 284 kts | 207° |
| 2026-05-05 18:51 | 44.77506 | -93.37329 | 7510 ft | 287 kts | 207° |
| 2026-05-05 18:51 | 44.75546 | -93.38507 | 8482 ft | 290 kts | 207° |
| 2026-05-05 18:52 | 44.73579 | -93.39688 | 9442 ft | 293 kts | 207° |
| 2026-05-05 18:52 | 44.71643 | -93.40844 | 10338 ft | 299 kts | 207° |
| 2026-05-05 18:52 | 44.69601 | -93.42063 | 10648 ft | 325 kts | 207° |
| 2026-05-05 18:52 | 44.67354 | -93.43396 | 10835 ft | 354 kts | 206° |
| 2026-05-05 18:53 | 44.64960 | -93.44806 | 10978 ft | 383 kts | 206° |
| 2026-05-05 18:53 | 44.62402 | -93.46310 | 11525 ft | 397 kts | 207° |
| 2026-05-05 18:53 | 44.59832 | -93.48041 | 12288 ft | 403 kts | 213° |
| 2026-05-05 18:53 | 44.57342 | -93.50045 | 13122 ft | 409 kts | 214° |
| 2026-05-05 18:54 | 44.54828 | -93.52104 | 13966 ft | 414 kts | 215° |
| 2026-05-05 18:54 | 44.52291 | -93.54187 | 14868 ft | 419 kts | 215° |
| 2026-05-05 18:54 | 44.49690 | -93.56310 | 15784 ft | 422 kts | 216° |
| 2026-05-05 18:54 | 44.47127 | -93.58382 | 16780 ft | 423 kts | 216° |
| 2026-05-05 18:55 | 44.44508 | -93.60500 | 17664 ft | 426 kts | 217° |
| 2026-05-05 18:55 | 44.41920 | -93.62605 | 18599 ft | 426 kts | 217° |
| 2026-05-05 18:55 | 44.39334 | -93.64728 | 19447 ft | 427 kts | 218° |
| 2026-05-05 18:55 | 44.36623 | -93.66956 | 20354 ft | 429 kts | 217° |
| 2026-05-05 18:56 | 44.33930 | -93.69112 | 21251 ft | 431 kts | 218° |
| 2026-05-05 18:56 | 44.31266 | -93.71240 | 22150 ft | 432 kts | 218° |
| 2026-05-05 18:56 | 44.28553 | -93.73411 | 22919 ft | 435 kts | 217° |
| 2026-05-05 18:56 | 44.25859 | -93.75568 | 23754 ft | 435 kts | 219° |
| 2026-05-05 18:57 | 44.23119 | -93.77756 | 24520 ft | 437 kts | 218° |
| 2026-05-05 18:57 | 44.20404 | -93.79925 | 25172 ft | 440 kts | 218° |
| 2026-05-05 18:57 | 44.17650 | -93.82172 | 25854 ft | 442 kts | 219° |
| 2026-05-05 18:57 | 44.14935 | -93.84409 | 26687 ft | 442 kts | 220° |
| 2026-05-05 18:58 | 44.12221 | -93.86591 | 27662 ft | 437 kts | 219° |
| 2026-05-05 18:58 | 44.09499 | -93.88725 | 28631 ft | 433 kts | 219° |
| 2026-05-05 18:58 | 44.06792 | -93.90864 | 29648 ft | 426 kts | 220° |
| 2026-05-05 18:58 | 44.04069 | -93.93021 | 30502 ft | 423 kts | 220° |
| 2026-05-05 18:59 | 44.01298 | -93.95209 | 31220 ft | 419 kts | 221° |
| 2026-05-05 18:59 | 43.98495 | -93.97417 | 31435 ft | 415 kts | 220° |
| 2026-05-05 18:59 | 43.95705 | -93.99620 | 31666 ft | 413 kts | 220° |
| 2026-05-05 18:59 | 43.92895 | -94.01828 | 31820 ft | 414 kts | 220° |
| 2026-05-05 19:00 | 43.87121 | -94.06401 | 31863 ft | 413 kts | 221° |
| 2026-05-05 19:00 | 43.81387 | -94.10915 | 31891 ft | 414 kts | 220° |
| 2026-05-05 19:01 | 43.75600 | -94.15486 | 31885 ft | 414 kts | 220° |
| 2026-05-05 19:01 | 43.69851 | -94.20040 | 31902 ft | 413 kts | 220° |
| 2026-05-05 19:02 | 43.64161 | -94.24684 | 31903 ft | 408 kts | 223° |
| 2026-05-05 19:02 | 43.58490 | -94.29449 | 31911 ft | 413 kts | 220° |
| 2026-05-05 19:03 | 43.52710 | -94.33884 | 31916 ft | 415 kts | 220° |
| 2026-05-05 19:03 | 43.46893 | -94.38285 | 31914 ft | 413 kts | 219° |
| 2026-05-05 19:04 | 43.41007 | -94.42742 | 31916 ft | 414 kts | 219° |
| 2026-05-05 19:04 | 43.35075 | -94.47230 | 31915 ft | 416 kts | 219° |
| 2026-05-05 19:05 | 43.28897 | -94.51195 | 31913 ft | 426 kts | 212° |
| 2026-05-05 19:05 | 43.22112 | -94.53957 | 31927 ft | 437 kts | 206° |
| 2026-05-05 19:06 | 43.15225 | -94.56323 | 31911 ft | 437 kts | 206° |
| 2026-05-05 19:06 | 43.08319 | -94.58730 | 31915 ft | 435 kts | 205° |
| 2026-05-05 19:07 | 43.01530 | -94.61082 | 31909 ft | 437 kts | 205° |
| 2026-05-05 19:07 | 42.94650 | -94.63448 | 31843 ft | 437 kts | 206° |
| 2026-05-05 19:08 | 42.87855 | -94.65800 | 31860 ft | 437 kts | 206° |
| 2026-05-05 19:08 | 42.81031 | -94.68154 | 31891 ft | 439 kts | 205° |
| 2026-05-05 19:09 | 42.74148 | -94.70538 | 31897 ft | 439 kts | 205° |
| 2026-05-05 19:09 | 42.67216 | -94.72928 | 31896 ft | 438 kts | 205° |
| 2026-05-05 19:10 | 42.60345 | -94.75309 | 31894 ft | 438 kts | 205° |
| 2026-05-05 19:10 | 42.53393 | -94.77711 | 31904 ft | 439 kts | 206° |
| 2026-05-05 19:11 | 42.46422 | -94.80115 | 31897 ft | 439 kts | 205° |
| 2026-05-05 19:11 | 42.39469 | -94.82496 | 31892 ft | 438 kts | 205° |
| 2026-05-05 19:12 | 42.32516 | -94.84817 | 31885 ft | 439 kts | 205° |
| 2026-05-05 19:12 | 42.25653 | -94.87144 | 31914 ft | 440 kts | 205° |
| 2026-05-05 19:13 | 42.18717 | -94.89465 | 31894 ft | 439 kts | 205° |
| 2026-05-05 19:13 | 42.11849 | -94.91767 | 31902 ft | 439 kts | 205° |
| 2026-05-05 19:14 | 42.04931 | -94.94109 | 31908 ft | 438 kts | 205° |
| 2026-05-05 19:14 | 41.98006 | -94.96434 | 31908 ft | 438 kts | 205° |
| 2026-05-05 19:15 | 41.91159 | -94.98744 | 31915 ft | 439 kts | 205° |
| 2026-05-05 19:15 | 41.84238 | -95.01059 | 31926 ft | 439 kts | 205° |
| 2026-05-05 19:16 | 41.77351 | -95.03393 | 31903 ft | 438 kts | 205° |
| 2026-05-05 19:16 | 41.70460 | -95.05707 | 31923 ft | 439 kts | 206° |
| 2026-05-05 19:17 | 41.63568 | -95.08019 | 31922 ft | 440 kts | 206° |
| 2026-05-05 19:17 | 41.56625 | -95.10305 | 31917 ft | 439 kts | 205° |
| 2026-05-05 19:18 | 41.49754 | -95.12561 | 31923 ft | 439 kts | 206° |
| 2026-05-05 19:18 | 41.42824 | -95.14831 | 31927 ft | 440 kts | 205° |
| 2026-05-05 19:19 | 41.35930 | -95.17089 | 31920 ft | 439 kts | 205° |
| 2026-05-05 19:19 | 41.29200 | -95.19303 | 31919 ft | 438 kts | 206° |
| 2026-05-05 19:20 | 41.22414 | -95.21520 | 31925 ft | 440 kts | 206° |
| 2026-05-05 19:20 | 41.15445 | -95.23814 | 31916 ft | 442 kts | 206° |
| 2026-05-05 19:21 | 41.08493 | -95.26086 | 31911 ft | 441 kts | 206° |
| 2026-05-05 19:21 | 41.01509 | -95.28381 | 31907 ft | 440 kts | 206° |
| 2026-05-05 19:22 | 40.94504 | -95.30673 | 31931 ft | 442 kts | 207° |
| 2026-05-05 19:22 | 40.87566 | -95.32957 | 31934 ft | 440 kts | 206° |
| 2026-05-05 19:23 | 40.80629 | -95.35226 | 31921 ft | 440 kts | 206° |
| 2026-05-05 19:23 | 40.73779 | -95.37401 | 31932 ft | 440 kts | 206° |
| 2026-05-05 19:24 | 40.66863 | -95.39623 | 31929 ft | 441 kts | 206° |
| 2026-05-05 19:24 | 40.59904 | -95.41836 | 31917 ft | 442 kts | 206° |
| 2026-05-05 19:25 | 40.53048 | -95.44041 | 31924 ft | 441 kts | 206° |
| 2026-05-05 19:25 | 40.46160 | -95.46229 | 31916 ft | 441 kts | 206° |
| 2026-05-05 19:26 | 40.39597 | -95.48342 | 31910 ft | 441 kts | 206° |
| 2026-05-05 19:26 | 40.33135 | -95.50399 | 31912 ft | 442 kts | 206° |
| 2026-05-05 19:27 | 40.26604 | -95.52495 | 31910 ft | 443 kts | 206° |
| 2026-05-05 19:27 | 40.20067 | -95.54571 | 31910 ft | 441 kts | 207° |
| 2026-05-05 19:28 | 40.13377 | -95.56726 | 31931 ft | 442 kts | 206° |
| 2026-05-05 19:28 | 40.06611 | -95.58880 | 31930 ft | 441 kts | 207° |
| 2026-05-05 19:29 | 39.99988 | -95.61008 | 31935 ft | 442 kts | 206° |
| 2026-05-05 19:29 | 39.93374 | -95.63052 | 31931 ft | 442 kts | 206° |
| 2026-05-05 19:30 | 39.86759 | -95.65132 | 31928 ft | 442 kts | 205° |
| 2026-05-05 19:30 | 39.80142 | -95.67176 | 31932 ft | 442 kts | 206° |
| 2026-05-05 19:31 | 39.73621 | -95.69235 | 31927 ft | 442 kts | 205° |
| 2026-05-05 19:31 | 39.67136 | -95.71241 | 31928 ft | 442 kts | 205° |
| 2026-05-05 19:32 | 39.60494 | -95.73324 | 31921 ft | 442 kts | 205° |
| 2026-05-05 19:32 | 39.53817 | -95.75398 | 31919 ft | 443 kts | 206° |
| 2026-05-05 19:33 | 39.47086 | -95.77508 | 31899 ft | 444 kts | 205° |
| 2026-05-05 19:33 | 39.40312 | -95.79614 | 31910 ft | 445 kts | 205° |
| 2026-05-05 19:34 | 39.33609 | -95.81707 | 31914 ft | 444 kts | 206° |
| 2026-05-05 19:35 | 39.23444 | -95.84879 | 31931 ft | 445 kts | 205° |
| 2026-05-05 19:35 | 39.16624 | -95.86992 | 31929 ft | 445 kts | 205° |
| 2026-05-05 19:36 | 39.09821 | -95.89047 | 31929 ft | 445 kts | 205° |
| 2026-05-05 19:36 | 39.02929 | -95.91170 | 31925 ft | 446 kts | 205° |
| 2026-05-05 19:37 | 38.96129 | -95.93227 | 31930 ft | 446 kts | 205° |
| 2026-05-05 19:37 | 38.89267 | -95.95322 | 31939 ft | 446 kts | 205° |
| 2026-05-05 19:38 | 38.82436 | -95.97399 | 31936 ft | 446 kts | 205° |
| 2026-05-05 19:38 | 38.75481 | -95.99526 | 31930 ft | 447 kts | 205° |
| 2026-05-05 19:39 | 38.68571 | -96.01625 | 31928 ft | 446 kts | 205° |
| 2026-05-05 19:39 | 38.61721 | -96.03717 | 31911 ft | 446 kts | 205° |
| 2026-05-05 19:40 | 38.54774 | -96.05830 | 31910 ft | 446 kts | 205° |
| 2026-05-05 19:40 | 38.47887 | -96.07937 | 31909 ft | 448 kts | 205° |
| 2026-05-05 19:41 | 38.40940 | -96.10043 | 31916 ft | 448 kts | 205° |
| 2026-05-05 19:41 | 38.34227 | -96.12077 | 31916 ft | 449 kts | 205° |
| 2026-05-05 19:42 | 38.27239 | -96.13992 | 31919 ft | 453 kts | 201° |
| 2026-05-05 19:42 | 38.20100 | -96.15176 | 31922 ft | 458 kts | 199° |
| 2026-05-05 19:43 | 38.12784 | -96.16261 | 31919 ft | 460 kts | 199° |
| 2026-05-05 19:43 | 38.05510 | -96.17367 | 31916 ft | 461 kts | 199° |
| 2026-05-05 19:44 | 37.98115 | -96.18469 | 31907 ft | 460 kts | 199° |
| 2026-05-05 19:44 | 37.90905 | -96.19557 | 31901 ft | 461 kts | 199° |
| 2026-05-05 19:45 | 37.83774 | -96.20623 | 31896 ft | 457 kts | 198° |
| 2026-05-05 19:45 | 37.76646 | -96.21698 | 31891 ft | 458 kts | 199° |
| 2026-05-05 19:46 | 37.69568 | -96.22756 | 31890 ft | 459 kts | 199° |
| 2026-05-05 19:46 | 37.62664 | -96.23800 | 31887 ft | 460 kts | 198° |
| 2026-05-05 19:47 | 37.55502 | -96.24864 | 31873 ft | 459 kts | 199° |
| 2026-05-05 19:47 | 37.48853 | -96.25864 | 31861 ft | 460 kts | 199° |
| 2026-05-05 19:48 | 37.42378 | -96.26828 | 31867 ft | 457 kts | 199° |
| 2026-05-05 19:48 | 37.35744 | -96.27827 | 31863 ft | 460 kts | 199° |
| 2026-05-05 19:49 | 37.29010 | -96.28799 | 31859 ft | 460 kts | 198° |
| 2026-05-05 19:49 | 37.22449 | -96.29776 | 31864 ft | 462 kts | 199° |
| 2026-05-05 19:50 | 37.15732 | -96.30747 | 31866 ft | 460 kts | 199° |
| 2026-05-05 19:50 | 37.09012 | -96.31741 | 31857 ft | 459 kts | 198° |
| 2026-05-05 19:51 | 37.02557 | -96.32682 | 31848 ft | 458 kts | 198° |
| 2026-05-05 19:51 | 36.96190 | -96.33631 | 31844 ft | 460 kts | 199° |
| 2026-05-05 19:52 | 36.89454 | -96.34596 | 31838 ft | 460 kts | 199° |
| 2026-05-05 19:52 | 36.82308 | -96.35664 | 31841 ft | 461 kts | 198° |
| 2026-05-05 19:53 | 36.75549 | -96.36648 | 31829 ft | 459 kts | 199° |
| 2026-05-05 19:53 | 36.68519 | -96.37682 | 31828 ft | 458 kts | 199° |
| 2026-05-05 19:54 | 36.61459 | -96.38727 | 31821 ft | 459 kts | 199° |
| 2026-05-05 19:54 | 36.54678 | -96.39706 | 31819 ft | 457 kts | 199° |
| 2026-05-05 19:55 | 36.47790 | -96.40686 | 31820 ft | 459 kts | 199° |
| 2026-05-05 19:55 | 36.41062 | -96.41655 | 31810 ft | 459 kts | 198° |
| 2026-05-05 19:56 | 36.34388 | -96.42628 | 31806 ft | 458 kts | 199° |
| 2026-05-05 19:56 | 36.27636 | -96.43577 | 31806 ft | 459 kts | 200° |
| 2026-05-05 19:57 | 36.20909 | -96.44546 | 31796 ft | 459 kts | 200° |
| 2026-05-05 19:57 | 36.14117 | -96.45523 | 31799 ft | 458 kts | 199° |
| 2026-05-05 19:58 | 36.07416 | -96.46498 | 31804 ft | 459 kts | 199° |
| 2026-05-05 19:58 | 36.01078 | -96.47395 | 31794 ft | 458 kts | 199° |
| 2026-05-05 19:59 | 35.94735 | -96.48317 | 31783 ft | 457 kts | 200° |
| 2026-05-05 19:59 | 35.88000 | -96.49276 | 31794 ft | 459 kts | 199° |
| 2026-05-05 20:00 | 35.81300 | -96.50244 | 31795 ft | 458 kts | 199° |
| 2026-05-05 20:00 | 35.74653 | -96.51198 | 31778 ft | 458 kts | 199° |
| 2026-05-05 20:01 | 35.68188 | -96.52102 | 31783 ft | 458 kts | 201° |
| 2026-05-05 20:01 | 35.61706 | -96.53024 | 31777 ft | 461 kts | 199° |
| 2026-05-05 20:02 | 35.54861 | -96.53972 | 31782 ft | 461 kts | 200° |
| 2026-05-05 20:02 | 35.47934 | -96.54958 | 31770 ft | 461 kts | 199° |
| 2026-05-05 20:03 | 35.41002 | -96.55929 | 31769 ft | 461 kts | 199° |
| 2026-05-05 20:03 | 35.34129 | -96.56894 | 31763 ft | 460 kts | 200° |
| 2026-05-05 20:04 | 35.27155 | -96.57870 | 31767 ft | 462 kts | 199° |
| 2026-05-05 20:04 | 35.20200 | -96.58859 | 31753 ft | 462 kts | 199° |
| 2026-05-05 20:05 | 35.13468 | -96.59794 | 31753 ft | 462 kts | 199° |
| 2026-05-05 20:05 | 35.06775 | -96.60752 | 31748 ft | 461 kts | 199° |
| 2026-05-05 20:06 | 35.00095 | -96.61671 | 31744 ft | 462 kts | 199° |
| 2026-05-05 20:06 | 34.93296 | -96.62652 | 31751 ft | 465 kts | 199° |
| 2026-05-05 20:07 | 34.86266 | -96.63599 | 31753 ft | 464 kts | 199° |
| 2026-05-05 20:07 | 34.79030 | -96.64612 | 31754 ft | 465 kts | 199° |
| 2026-05-05 20:08 | 34.71713 | -96.65613 | 31769 ft | 465 kts | 199° |
| 2026-05-05 20:08 | 34.64426 | -96.66613 | 31773 ft | 468 kts | 198° |
| 2026-05-05 20:09 | 34.57010 | -96.67642 | 31763 ft | 467 kts | 198° |
| 2026-05-05 20:09 | 34.49871 | -96.68627 | 31752 ft | 466 kts | 198° |
| 2026-05-05 20:10 | 34.42796 | -96.69597 | 31742 ft | 466 kts | 198° |
| 2026-05-05 20:10 | 34.35770 | -96.70573 | 31745 ft | 468 kts | 199° |
| 2026-05-05 20:11 | 34.28705 | -96.71537 | 31751 ft | 471 kts | 198° |
| 2026-05-05 20:11 | 34.21664 | -96.72514 | 31738 ft | 468 kts | 198° |
| 2026-05-05 20:12 | 34.14473 | -96.73506 | 31734 ft | 468 kts | 198° |
| 2026-05-05 20:12 | 34.07320 | -96.74489 | 31734 ft | 469 kts | 198° |
| 2026-05-05 20:13 | 34.00249 | -96.75425 | 31732 ft | 468 kts | 198° |
| 2026-05-05 20:13 | 33.93126 | -96.76411 | 31734 ft | 469 kts | 198° |
| 2026-05-05 20:14 | 33.85670 | -96.77406 | 31726 ft | 471 kts | 198° |